sensor_id;sensor_type;location;lat;lon;timestamp;P1;durP1;ratioP1;P2;durP2;ratioP2
55067;SDS011;40965;52.368;9.712;2024-01-15T00:01:45;14.95;;;7.80;;
55067;SDS011;40965;52.368;9.712;2024-01-15T00:04:15;14.80;;;7.65;;
55067;SDS011;40965;52.368;9.712;2024-01-15T00:06:44;13.27;;;7.93;;
55067;SDS011;40965;52.368;9.712;2024-01-15T00:09:14;12.07;;;7.13;;
55067;SDS011;40965;52.368;9.712;2024-01-15T00:11:41;10.23;;;6.80;;
55067;SDS011;40965;52.368;9.712;2024-01-15T00:14:09;10.60;;;6.97;;
55067;SDS011;40965;52.368;9.712;2024-01-15T00:16:37;12.63;;;7.25;;
55067;SDS011;40965;52.368;9.712;2024-01-15T00:19:03;9.38;;;6.30;;
55067;SDS011;40965;52.368;9.712;2024-01-15T00:21:30;8.13;;;5.38;;
55067;SDS011;40965;52.368;9.712;2024-01-15T00:23:57;14.63;;;6.32;;
55067;SDS011;40965;52.368;9.712;2024-01-15T00:26:27;10.82;;;5.25;;
55067;SDS011;40965;52.368;9.712;2024-01-15T00:28:55;12.02;;;5.90;;
55067;SDS011;40965;52.368;9.712;2024-01-15T00:31:25;12.23;;;7.03;;
55067;SDS011;40965;52.368;9.712;2024-01-15T00:33:52;12.18;;;5.93;;
55067;SDS011;40965;52.368;9.712;2024-01-15T00:36:18;11.70;;;6.50;;
55067;SDS011;40965;52.368;9.712;2024-01-15T00:38:50;11.57;;;5.50;;
55067;SDS011;40965;52.368;9.712;2024-01-15T00:41:19;7.80;;;5.28;;
55067;SDS011;40965;52.368;9.712;2024-01-15T00:43:52;15.35;;;6.63;;
55067;SDS011;40965;52.368;9.712;2024-01-15T00:46:20;8.93;;;5.10;;
55067;SDS011;40965;52.368;9.712;2024-01-15T00:48:47;8.88;;;6.07;;
55067;SDS011;40965;52.368;9.712;2024-01-15T00:51:13;10.18;;;6.10;;
55067;SDS011;40965;52.368;9.712;2024-01-15T00:53:40;8.45;;;5.70;;
55067;SDS011;40965;52.368;9.712;2024-01-15T00:56:07;8.45;;;5.93;;
55067;SDS011;40965;52.368;9.712;2024-01-15T00:58:34;13.15;;;6.68;;
55067;SDS011;40965;52.368;9.712;2024-01-15T01:01:01;7.38;;;5.35;;
55067;SDS011;40965;52.368;9.712;2024-01-15T01:03:27;10.88;;;6.68;;
55067;SDS011;40965;52.368;9.712;2024-01-15T01:05:54;9.23;;;5.50;;
55067;SDS011;40965;52.368;9.712;2024-01-15T01:08:21;9.15;;;5.38;;
55067;SDS011;40965;52.368;9.712;2024-01-15T01:10:47;9.02;;;4.75;;
55067;SDS011;40965;52.368;9.712;2024-01-15T01:13:14;10.35;;;5.10;;
55067;SDS011;40965;52.368;9.712;2024-01-15T01:15:41;7.20;;;4.47;;
55067;SDS011;40965;52.368;9.712;2024-01-15T01:18:07;12.05;;;3.72;;
55067;SDS011;40965;52.368;9.712;2024-01-15T01:20:34;11.38;;;4.43;;
55067;SDS011;40965;52.368;9.712;2024-01-15T01:23:00;7.47;;;5.25;;
55067;SDS011;40965;52.368;9.712;2024-01-15T01:25:29;11.20;;;4.60;;
55067;SDS011;40965;52.368;9.712;2024-01-15T01:27:56;7.22;;;3.97;;
55067;SDS011;40965;52.368;9.712;2024-01-15T01:30:22;9.77;;;3.53;;
55067;SDS011;40965;52.368;9.712;2024-01-15T01:32:49;9.43;;;3.33;;
55067;SDS011;40965;52.368;9.712;2024-01-15T01:35:15;11.48;;;3.58;;
55067;SDS011;40965;52.368;9.712;2024-01-15T01:37:42;4.38;;;2.85;;
55067;SDS011;40965;52.368;9.712;2024-01-15T01:40:08;10.43;;;3.15;;
55067;SDS011;40965;52.368;9.712;2024-01-15T01:42:36;17.75;;;4.25;;
55067;SDS011;40965;52.368;9.712;2024-01-15T01:45:03;5.40;;;3.15;;
55067;SDS011;40965;52.368;9.712;2024-01-15T01:47:30;12.25;;;3.45;;
55067;SDS011;40965;52.368;9.712;2024-01-15T01:49:58;7.20;;;2.58;;
55067;SDS011;40965;52.368;9.712;2024-01-15T01:52:24;7.43;;;3.03;;
55067;SDS011;40965;52.368;9.712;2024-01-15T01:54:54;12.30;;;2.70;;
55067;SDS011;40965;52.368;9.712;2024-01-15T01:57:22;7.15;;;2.20;;
55067;SDS011;40965;52.368;9.712;2024-01-15T01:59:49;20.50;;;3.17;;
55067;SDS011;40965;52.368;9.712;2024-01-15T02:02:17;9.80;;;2.70;;
55067;SDS011;40965;52.368;9.712;2024-01-15T02:04:44;6.05;;;2.78;;
55067;SDS011;40965;52.368;9.712;2024-01-15T02:07:14;10.82;;;4.00;;
55067;SDS011;40965;52.368;9.712;2024-01-15T02:09:43;7.38;;;2.88;;
55067;SDS011;40965;52.368;9.712;2024-01-15T02:12:10;12.82;;;3.08;;
55067;SDS011;40965;52.368;9.712;2024-01-15T02:14:37;10.45;;;2.47;;
55067;SDS011;40965;52.368;9.712;2024-01-15T02:17:08;5.32;;;2.45;;
55067;SDS011;40965;52.368;9.712;2024-01-15T02:19:34;9.43;;;3.10;;
55067;SDS011;40965;52.368;9.712;2024-01-15T02:22:01;3.97;;;2.45;;
55067;SDS011;40965;52.368;9.712;2024-01-15T02:24:27;7.07;;;2.67;;
55067;SDS011;40965;52.368;9.712;2024-01-15T02:26:54;8.55;;;2.10;;
55067;SDS011;40965;52.368;9.712;2024-01-15T02:29:23;5.50;;;2.20;;
55067;SDS011;40965;52.368;9.712;2024-01-15T02:31:50;9.85;;;2.28;;
55067;SDS011;40965;52.368;9.712;2024-01-15T02:34:18;13.25;;;3.42;;
55067;SDS011;40965;52.368;9.712;2024-01-15T02:36:48;10.00;;;2.58;;
55067;SDS011;40965;52.368;9.712;2024-01-15T02:39:14;10.90;;;2.13;;
55067;SDS011;40965;52.368;9.712;2024-01-15T02:41:41;7.30;;;1.95;;
55067;SDS011;40965;52.368;9.712;2024-01-15T02:44:07;4.68;;;1.55;;
55067;SDS011;40965;52.368;9.712;2024-01-15T02:46:34;4.85;;;1.80;;
55067;SDS011;40965;52.368;9.712;2024-01-15T02:49:00;4.85;;;1.30;;
55067;SDS011;40965;52.368;9.712;2024-01-15T02:51:27;5.78;;;1.92;;
55067;SDS011;40965;52.368;9.712;2024-01-15T02:53:53;7.10;;;1.90;;
55067;SDS011;40965;52.368;9.712;2024-01-15T02:56:20;5.10;;;1.50;;
55067;SDS011;40965;52.368;9.712;2024-01-15T02:58:46;7.88;;;2.10;;
55067;SDS011;40965;52.368;9.712;2024-01-15T03:01:13;8.98;;;1.73;;
55067;SDS011;40965;52.368;9.712;2024-01-15T03:03:40;6.95;;;3.47;;
55067;SDS011;40965;52.368;9.712;2024-01-15T03:06:06;4.30;;;2.15;;
55067;SDS011;40965;52.368;9.712;2024-01-15T03:08:33;7.30;;;1.38;;
55067;SDS011;40965;52.368;9.712;2024-01-15T03:11:00;6.60;;;3.13;;
55067;SDS011;40965;52.368;9.712;2024-01-15T03:13:26;5.20;;;1.50;;
55067;SDS011;40965;52.368;9.712;2024-01-15T03:15:53;5.03;;;1.30;;
55067;SDS011;40965;52.368;9.712;2024-01-15T03:18:19;9.73;;;2.05;;
55067;SDS011;40965;52.368;9.712;2024-01-15T03:20:46;6.55;;;1.27;;
55067;SDS011;40965;52.368;9.712;2024-01-15T03:23:12;5.90;;;1.70;;
55067;SDS011;40965;52.368;9.712;2024-01-15T03:25:39;5.90;;;1.23;;
55067;SDS011;40965;52.368;9.712;2024-01-15T03:28:08;3.78;;;1.25;;
55067;SDS011;40965;52.368;9.712;2024-01-15T03:30:34;4.82;;;1.08;;
55067;SDS011;40965;52.368;9.712;2024-01-15T03:33:01;7.85;;;1.38;;
55067;SDS011;40965;52.368;9.712;2024-01-15T03:35:27;2.95;;;1.30;;
55067;SDS011;40965;52.368;9.712;2024-01-15T03:37:55;4.78;;;1.38;;
55067;SDS011;40965;52.368;9.712;2024-01-15T03:40:22;4.55;;;1.05;;
55067;SDS011;40965;52.368;9.712;2024-01-15T03:42:49;7.28;;;0.90;;
55067;SDS011;40965;52.368;9.712;2024-01-15T03:45:15;12.10;;;1.65;;
55067;SDS011;40965;52.368;9.712;2024-01-15T03:47:42;9.10;;;1.52;;
55067;SDS011;40965;52.368;9.712;2024-01-15T03:50:08;1.95;;;1.10;;
55067;SDS011;40965;52.368;9.712;2024-01-15T03:52:35;3.58;;;1.50;;
55067;SDS011;40965;52.368;9.712;2024-01-15T03:55:02;6.88;;;1.80;;
55067;SDS011;40965;52.368;9.712;2024-01-15T03:57:30;8.27;;;1.42;;
55067;SDS011;40965;52.368;9.712;2024-01-15T03:59:59;6.25;;;1.08;;
55067;SDS011;40965;52.368;9.712;2024-01-15T04:02:26;7.07;;;1.30;;
55067;SDS011;40965;52.368;9.712;2024-01-15T04:04:52;4.97;;;1.30;;
55067;SDS011;40965;52.368;9.712;2024-01-15T04:07:19;16.33;;;3.13;;
55067;SDS011;40965;52.368;9.712;2024-01-15T04:09:46;6.28;;;1.00;;
55067;SDS011;40965;52.368;9.712;2024-01-15T04:12:12;8.15;;;1.73;;
55067;SDS011;40965;52.368;9.712;2024-01-15T04:14:39;5.35;;;1.92;;
55067;SDS011;40965;52.368;9.712;2024-01-15T04:17:06;3.72;;;0.98;;
55067;SDS011;40965;52.368;9.712;2024-01-15T04:19:35;9.20;;;1.73;;
55067;SDS011;40965;52.368;9.712;2024-01-15T04:22:02;12.63;;;2.03;;
55067;SDS011;40965;52.368;9.712;2024-01-15T04:24:33;8.88;;;1.77;;
55067;SDS011;40965;52.368;9.712;2024-01-15T04:27:00;3.20;;;1.13;;
55067;SDS011;40965;52.368;9.712;2024-01-15T04:29:27;7.05;;;1.15;;
55067;SDS011;40965;52.368;9.712;2024-01-15T04:31:53;16.58;;;1.65;;
55067;SDS011;40965;52.368;9.712;2024-01-15T04:34:22;11.30;;;1.75;;
55067;SDS011;40965;52.368;9.712;2024-01-15T04:36:49;5.50;;;0.95;;
55067;SDS011;40965;52.368;9.712;2024-01-15T04:39:16;15.70;;;1.77;;
55067;SDS011;40965;52.368;9.712;2024-01-15T04:41:46;12.38;;;1.10;;
55067;SDS011;40965;52.368;9.712;2024-01-15T04:44:14;4.38;;;1.17;;
55067;SDS011;40965;52.368;9.712;2024-01-15T04:46:41;11.43;;;1.05;;
55067;SDS011;40965;52.368;9.712;2024-01-15T04:49:08;4.72;;;0.75;;
55067;SDS011;40965;52.368;9.712;2024-01-15T04:51:35;8.23;;;1.13;;
55067;SDS011;40965;52.368;9.712;2024-01-15T04:54:07;13.60;;;1.98;;
55067;SDS011;40965;52.368;9.712;2024-01-15T04:56:33;3.15;;;0.80;;
55067;SDS011;40965;52.368;9.712;2024-01-15T04:59:00;3.22;;;1.45;;
55067;SDS011;40965;52.368;9.712;2024-01-15T05:01:30;6.10;;;1.45;;
55067;SDS011;40965;52.368;9.712;2024-01-15T05:04:00;7.75;;;1.13;;
55067;SDS011;40965;52.368;9.712;2024-01-15T05:06:27;7.18;;;0.88;;
55067;SDS011;40965;52.368;9.712;2024-01-15T05:08:54;4.60;;;1.70;;
55067;SDS011;40965;52.368;9.712;2024-01-15T05:11:20;7.50;;;1.20;;
55067;SDS011;40965;52.368;9.712;2024-01-15T05:13:56;7.57;;;1.10;;
55067;SDS011;40965;52.368;9.712;2024-01-15T05:16:24;8.45;;;1.45;;
55067;SDS011;40965;52.368;9.712;2024-01-15T05:18:51;2.88;;;1.25;;
55067;SDS011;40965;52.368;9.712;2024-01-15T05:21:17;4.95;;;1.20;;
55067;SDS011;40965;52.368;9.712;2024-01-15T05:23:44;5.63;;;1.73;;
55067;SDS011;40965;52.368;9.712;2024-01-15T05:26:10;11.27;;;1.00;;
55067;SDS011;40965;52.368;9.712;2024-01-15T05:28:42;1.83;;;1.00;;
55067;SDS011;40965;52.368;9.712;2024-01-15T05:31:09;5.43;;;1.85;;
55067;SDS011;40965;52.368;9.712;2024-01-15T05:33:36;5.40;;;1.10;;
55067;SDS011;40965;52.368;9.712;2024-01-15T05:36:06;5.82;;;1.25;;
55067;SDS011;40965;52.368;9.712;2024-01-15T05:38:33;8.35;;;1.48;;
55067;SDS011;40965;52.368;9.712;2024-01-15T05:41:02;8.98;;;1.10;;
55067;SDS011;40965;52.368;9.712;2024-01-15T05:43:29;3.45;;;1.10;;
55067;SDS011;40965;52.368;9.712;2024-01-15T05:45:55;5.15;;;2.40;;
55067;SDS011;40965;52.368;9.712;2024-01-15T05:48:22;13.38;;;1.55;;
55067;SDS011;40965;52.368;9.712;2024-01-15T05:50:48;4.85;;;1.45;;
55067;SDS011;40965;52.368;9.712;2024-01-15T05:53:15;9.18;;;1.58;;
55067;SDS011;40965;52.368;9.712;2024-01-15T05:55:41;2.60;;;0.95;;
55067;SDS011;40965;52.368;9.712;2024-01-15T05:58:08;6.28;;;1.30;;
55067;SDS011;40965;52.368;9.712;2024-01-15T06:00:35;7.82;;;0.95;;
55067;SDS011;40965;52.368;9.712;2024-01-15T06:03:03;3.65;;;1.00;;
55067;SDS011;40965;52.368;9.712;2024-01-15T06:05:30;5.32;;;1.77;;
55067;SDS011;40965;52.368;9.712;2024-01-15T06:07:56;3.92;;;1.33;;
55067;SDS011;40965;52.368;9.712;2024-01-15T06:10:23;2.38;;;1.23;;
55067;SDS011;40965;52.368;9.712;2024-01-15T06:12:50;12.23;;;1.85;;
55067;SDS011;40965;52.368;9.712;2024-01-15T06:15:22;2.25;;;1.05;;
55067;SDS011;40965;52.368;9.712;2024-01-15T06:17:51;6.97;;;1.27;;
55067;SDS011;40965;52.368;9.712;2024-01-15T06:20:18;9.10;;;1.27;;
55067;SDS011;40965;52.368;9.712;2024-01-15T06:22:45;2.22;;;0.65;;
55067;SDS011;40965;52.368;9.712;2024-01-15T06:25:12;5.05;;;1.33;;
55067;SDS011;40965;52.368;9.712;2024-01-15T06:27:38;6.15;;;1.58;;
55067;SDS011;40965;52.368;9.712;2024-01-15T06:30:05;4.72;;;1.40;;
55067;SDS011;40965;52.368;9.712;2024-01-15T06:32:35;6.97;;;1.85;;
55067;SDS011;40965;52.368;9.712;2024-01-15T06:35:02;6.80;;;1.83;;
55067;SDS011;40965;52.368;9.712;2024-01-15T06:37:31;10.57;;;1.58;;
55067;SDS011;40965;52.368;9.712;2024-01-15T06:39:57;3.45;;;1.08;;
55067;SDS011;40965;52.368;9.712;2024-01-15T06:42:24;5.68;;;1.35;;
55067;SDS011;40965;52.368;9.712;2024-01-15T06:44:52;8.88;;;1.02;;
55067;SDS011;40965;52.368;9.712;2024-01-15T06:47:22;6.00;;;1.48;;
55067;SDS011;40965;52.368;9.712;2024-01-15T06:49:48;4.25;;;1.05;;
55067;SDS011;40965;52.368;9.712;2024-01-15T06:52:24;10.73;;;3.58;;
55067;SDS011;40965;52.368;9.712;2024-01-15T06:54:50;10.93;;;2.08;;
55067;SDS011;40965;52.368;9.712;2024-01-15T06:57:20;5.90;;;2.38;;
55067;SDS011;40965;52.368;9.712;2024-01-15T06:59:49;7.82;;;1.65;;
55067;SDS011;40965;52.368;9.712;2024-01-15T07:02:19;7.05;;;1.60;;
55067;SDS011;40965;52.368;9.712;2024-01-15T07:04:46;4.88;;;1.50;;
55067;SDS011;40965;52.368;9.712;2024-01-15T07:07:14;6.95;;;1.75;;
55067;SDS011;40965;52.368;9.712;2024-01-15T07:09:41;9.68;;;1.58;;
55067;SDS011;40965;52.368;9.712;2024-01-15T07:12:07;3.17;;;1.40;;
55067;SDS011;40965;52.368;9.712;2024-01-15T07:14:34;3.53;;;1.40;;
55067;SDS011;40965;52.368;9.712;2024-01-15T07:17:00;11.63;;;3.00;;
55067;SDS011;40965;52.368;9.712;2024-01-15T07:19:30;4.97;;;1.60;;
55067;SDS011;40965;52.368;9.712;2024-01-15T07:21:57;1.85;;;1.65;;
55067;SDS011;40965;52.368;9.712;2024-01-15T07:24:23;6.45;;;1.30;;
55067;SDS011;40965;52.368;9.712;2024-01-15T07:26:50;3.88;;;1.70;;
55067;SDS011;40965;52.368;9.712;2024-01-15T07:29:16;5.70;;;2.08;;
55067;SDS011;40965;52.368;9.712;2024-01-15T07:31:47;6.32;;;1.80;;
55067;SDS011;40965;52.368;9.712;2024-01-15T07:34:17;6.63;;;2.15;;
55067;SDS011;40965;52.368;9.712;2024-01-15T07:36:44;3.45;;;1.33;;
55067;SDS011;40965;52.368;9.712;2024-01-15T07:39:11;4.97;;;2.05;;
55067;SDS011;40965;52.368;9.712;2024-01-15T07:41:38;8.32;;;1.75;;
55067;SDS011;40965;52.368;9.712;2024-01-15T07:44:08;7.45;;;3.42;;
55067;SDS011;40965;52.368;9.712;2024-01-15T07:46:34;7.38;;;3.58;;
55067;SDS011;40965;52.368;9.712;2024-01-15T07:49:04;2.58;;;1.30;;
55067;SDS011;40965;52.368;9.712;2024-01-15T07:51:30;5.57;;;1.65;;
55067;SDS011;40965;52.368;9.712;2024-01-15T07:53:58;3.08;;;1.30;;
55067;SDS011;40965;52.368;9.712;2024-01-15T07:56:25;11.13;;;1.92;;
55067;SDS011;40965;52.368;9.712;2024-01-15T07:58:52;6.50;;;1.95;;
55067;SDS011;40965;52.368;9.712;2024-01-15T08:01:19;6.82;;;2.55;;
55067;SDS011;40965;52.368;9.712;2024-01-15T08:03:45;4.70;;;1.50;;
55067;SDS011;40965;52.368;9.712;2024-01-15T08:06:13;7.53;;;1.88;;
55067;SDS011;40965;52.368;9.712;2024-01-15T08:08:39;8.30;;;1.98;;
55067;SDS011;40965;52.368;9.712;2024-01-15T08:11:06;6.45;;;1.90;;
55067;SDS011;40965;52.368;9.712;2024-01-15T08:13:33;6.18;;;1.63;;
55067;SDS011;40965;52.368;9.712;2024-01-15T08:15:59;5.50;;;3.28;;
55067;SDS011;40965;52.368;9.712;2024-01-15T08:18:27;9.85;;;2.05;;
55067;SDS011;40965;52.368;9.712;2024-01-15T08:20:55;5.03;;;2.80;;
55067;SDS011;40965;52.368;9.712;2024-01-15T08:23:21;6.75;;;2.13;;
55067;SDS011;40965;52.368;9.712;2024-01-15T08:25:48;11.40;;;2.28;;
55067;SDS011;40965;52.368;9.712;2024-01-15T08:28:15;6.05;;;2.05;;
55067;SDS011;40965;52.368;9.712;2024-01-15T08:30:42;6.30;;;2.10;;
55067;SDS011;40965;52.368;9.712;2024-01-15T08:33:09;11.65;;;2.03;;
55067;SDS011;40965;52.368;9.712;2024-01-15T08:35:36;2.83;;;1.63;;
55067;SDS011;40965;52.368;9.712;2024-01-15T08:38:03;6.68;;;2.22;;
55067;SDS011;40965;52.368;9.712;2024-01-15T08:40:31;5.38;;;1.67;;
55067;SDS011;40965;52.368;9.712;2024-01-15T08:42:57;3.58;;;1.20;;
55067;SDS011;40965;52.368;9.712;2024-01-15T08:45:24;5.78;;;1.50;;
55067;SDS011;40965;52.368;9.712;2024-01-15T08:47:50;3.08;;;1.55;;
55067;SDS011;40965;52.368;9.712;2024-01-15T08:50:18;2.67;;;1.38;;
55067;SDS011;40965;52.368;9.712;2024-01-15T08:52:45;6.72;;;1.38;;
55067;SDS011;40965;52.368;9.712;2024-01-15T08:55:12;2.97;;;1.35;;
55067;SDS011;40965;52.368;9.712;2024-01-15T08:57:44;4.10;;;1.33;;
55067;SDS011;40965;52.368;9.712;2024-01-15T09:00:11;4.95;;;1.60;;
55067;SDS011;40965;52.368;9.712;2024-01-15T09:02:39;3.95;;;1.95;;
55067;SDS011;40965;52.368;9.712;2024-01-15T09:05:09;5.72;;;1.55;;
55067;SDS011;40965;52.368;9.712;2024-01-15T09:07:36;5.93;;;1.35;;
55067;SDS011;40965;52.368;9.712;2024-01-15T09:10:04;5.38;;;1.52;;
55067;SDS011;40965;52.368;9.712;2024-01-15T09:12:33;5.85;;;2.50;;
55067;SDS011;40965;52.368;9.712;2024-01-15T09:15:00;7.07;;;1.45;;
55067;SDS011;40965;52.368;9.712;2024-01-15T09:17:29;8.93;;;1.77;;
55067;SDS011;40965;52.368;9.712;2024-01-15T09:19:56;7.13;;;2.42;;
55067;SDS011;40965;52.368;9.712;2024-01-15T09:22:23;8.60;;;1.58;;
55067;SDS011;40965;52.368;9.712;2024-01-15T09:24:59;4.93;;;1.55;;
55067;SDS011;40965;52.368;9.712;2024-01-15T09:27:26;6.30;;;1.67;;
55067;SDS011;40965;52.368;9.712;2024-01-15T09:29:52;3.58;;;2.22;;
55067;SDS011;40965;52.368;9.712;2024-01-15T09:32:19;5.90;;;1.65;;
55067;SDS011;40965;52.368;9.712;2024-01-15T09:34:46;7.13;;;1.48;;
55067;SDS011;40965;52.368;9.712;2024-01-15T09:37:15;8.32;;;2.30;;
55067;SDS011;40965;52.368;9.712;2024-01-15T09:39:42;3.15;;;1.50;;
55067;SDS011;40965;52.368;9.712;2024-01-15T09:42:09;7.07;;;2.55;;
55067;SDS011;40965;52.368;9.712;2024-01-15T09:44:39;7.65;;;1.60;;
55067;SDS011;40965;52.368;9.712;2024-01-15T09:47:06;6.10;;;2.53;;
55067;SDS011;40965;52.368;9.712;2024-01-15T09:49:34;7.13;;;1.25;;
55067;SDS011;40965;52.368;9.712;2024-01-15T09:52:01;6.60;;;1.90;;
55067;SDS011;40965;52.368;9.712;2024-01-15T09:54:28;5.32;;;1.60;;
55067;SDS011;40965;52.368;9.712;2024-01-15T09:56:55;5.47;;;2.50;;
55067;SDS011;40965;52.368;9.712;2024-01-15T09:59:22;9.07;;;1.83;;
55067;SDS011;40965;52.368;9.712;2024-01-15T10:01:48;8.25;;;2.45;;
55067;SDS011;40965;52.368;9.712;2024-01-15T10:04:16;1.60;;;1.50;;
55067;SDS011;40965;52.368;9.712;2024-01-15T10:06:44;6.72;;;1.52;;
55067;SDS011;40965;52.368;9.712;2024-01-15T10:09:17;2.10;;;0.70;;
55067;SDS011;40965;52.368;9.712;2024-01-15T10:11:48;3.90;;;1.00;;
55067;SDS011;40965;52.368;9.712;2024-01-15T10:14:14;5.07;;;0.82;;
55067;SDS011;40965;52.368;9.712;2024-01-15T10:16:41;1.88;;;1.30;;
55067;SDS011;40965;52.368;9.712;2024-01-15T10:19:08;2.78;;;1.10;;
55067;SDS011;40965;52.368;9.712;2024-01-15T10:21:35;4.70;;;1.38;;
55067;SDS011;40965;52.368;9.712;2024-01-15T10:24:05;1.63;;;1.50;;
55067;SDS011;40965;52.368;9.712;2024-01-15T10:26:32;2.38;;;1.50;;
55067;SDS011;40965;52.368;9.712;2024-01-15T10:28:59;4.53;;;1.27;;
55067;SDS011;40965;52.368;9.712;2024-01-15T10:31:26;2.47;;;1.20;;
55067;SDS011;40965;52.368;9.712;2024-01-15T10:34:10;3.97;;;1.40;;
55067;SDS011;40965;52.368;9.712;2024-01-15T10:36:41;1.38;;;1.08;;
55067;SDS011;40965;52.368;9.712;2024-01-15T10:39:07;4.07;;;1.15;;
55067;SDS011;40965;52.368;9.712;2024-01-15T10:41:34;4.10;;;2.53;;
55067;SDS011;40965;52.368;9.712;2024-01-15T10:44:01;4.20;;;1.67;;
55067;SDS011;40965;52.368;9.712;2024-01-15T10:46:31;2.30;;;1.13;;
55067;SDS011;40965;52.368;9.712;2024-01-15T10:49:00;4.15;;;1.63;;
55067;SDS011;40965;52.368;9.712;2024-01-15T10:51:26;2.40;;;0.77;;
55067;SDS011;40965;52.368;9.712;2024-01-15T10:53:53;3.08;;;1.17;;
55067;SDS011;40965;52.368;9.712;2024-01-15T10:56:26;2.80;;;1.63;;
55067;SDS011;40965;52.368;9.712;2024-01-15T10:58:58;3.50;;;1.38;;
55067;SDS011;40965;52.368;9.712;2024-01-15T11:01:25;1.95;;;1.17;;
55067;SDS011;40965;52.368;9.712;2024-01-15T11:03:54;1.45;;;0.90;;
55067;SDS011;40965;52.368;9.712;2024-01-15T11:06:22;1.30;;;1.17;;
55067;SDS011;40965;52.368;9.712;2024-01-15T11:08:51;2.92;;;1.05;;
55067;SDS011;40965;52.368;9.712;2024-01-15T11:11:20;3.22;;;1.38;;
55067;SDS011;40965;52.368;9.712;2024-01-15T11:13:48;7.90;;;2.15;;
55067;SDS011;40965;52.368;9.712;2024-01-15T11:16:16;3.35;;;1.00;;
55067;SDS011;40965;52.368;9.712;2024-01-15T11:21:31;4.65;;;1.17;;
55067;SDS011;40965;52.368;9.712;2024-01-15T11:23:58;1.77;;;0.93;;
55067;SDS011;40965;52.368;9.712;2024-01-15T11:26:37;2.45;;;1.25;;
55067;SDS011;40965;52.368;9.712;2024-01-15T11:29:07;4.95;;;1.10;;
55067;SDS011;40965;52.368;9.712;2024-01-15T11:32:00;2.05;;;0.90;;
55067;SDS011;40965;52.368;9.712;2024-01-15T11:37:28;5.25;;;1.20;;
55067;SDS011;40965;52.368;9.712;2024-01-15T11:40:38;1.73;;;1.60;;
55067;SDS011;40965;52.368;9.712;2024-01-15T11:43:07;3.25;;;1.45;;
55067;SDS011;40965;52.368;9.712;2024-01-15T11:45:35;2.33;;;1.40;;
55067;SDS011;40965;52.368;9.712;2024-01-15T11:48:09;2.55;;;1.02;;
55067;SDS011;40965;52.368;9.712;2024-01-15T11:50:41;5.25;;;1.25;;
55067;SDS011;40965;52.368;9.712;2024-01-15T11:53:16;2.78;;;1.13;;
55067;SDS011;40965;52.368;9.712;2024-01-15T11:55:49;2.72;;;1.13;;
55067;SDS011;40965;52.368;9.712;2024-01-15T11:58:20;3.97;;;1.40;;
55067;SDS011;40965;52.368;9.712;2024-01-15T12:00:47;4.93;;;1.30;;
55067;SDS011;40965;52.368;9.712;2024-01-15T12:03:16;4.82;;;1.10;;
55067;SDS011;40965;52.368;9.712;2024-01-15T12:05:42;8.25;;;1.58;;
55067;SDS011;40965;52.368;9.712;2024-01-15T12:08:09;4.55;;;2.45;;
55067;SDS011;40965;52.368;9.712;2024-01-15T12:10:37;4.85;;;1.55;;
55067;SDS011;40965;52.368;9.712;2024-01-15T12:15:39;6.60;;;1.77;;
55067;SDS011;40965;52.368;9.712;2024-01-15T12:18:09;4.50;;;1.30;;
55067;SDS011;40965;52.368;9.712;2024-01-15T12:20:39;7.10;;;2.47;;
55067;SDS011;40965;52.368;9.712;2024-01-15T12:23:10;4.97;;;1.40;;
55067;SDS011;40965;52.368;9.712;2024-01-15T12:25:38;4.53;;;2.53;;
55067;SDS011;40965;52.368;9.712;2024-01-15T12:28:05;3.15;;;1.30;;
55067;SDS011;40965;52.368;9.712;2024-01-15T12:30:33;5.38;;;1.58;;
55067;SDS011;40965;52.368;9.712;2024-01-15T12:33:06;9.02;;;1.42;;
55067;SDS011;40965;52.368;9.712;2024-01-15T12:35:33;5.03;;;1.50;;
55067;SDS011;40965;52.368;9.712;2024-01-15T12:38:01;3.17;;;1.27;;
55067;SDS011;40965;52.368;9.712;2024-01-15T12:40:28;7.30;;;1.08;;
55067;SDS011;40965;52.368;9.712;2024-01-15T12:43:00;5.32;;;1.50;;
55067;SDS011;40965;52.368;9.712;2024-01-15T12:45:30;5.75;;;0.88;;
55067;SDS011;40965;52.368;9.712;2024-01-15T12:47:57;3.05;;;1.27;;
55067;SDS011;40965;52.368;9.712;2024-01-15T12:50:25;1.30;;;1.00;;
55067;SDS011;40965;52.368;9.712;2024-01-15T12:52:54;2.00;;;1.13;;
55067;SDS011;40965;52.368;9.712;2024-01-15T12:55:21;5.15;;;1.50;;
55067;SDS011;40965;52.368;9.712;2024-01-15T12:57:49;7.70;;;2.00;;
55067;SDS011;40965;52.368;9.712;2024-01-15T13:00:19;6.32;;;1.50;;
55067;SDS011;40965;52.368;9.712;2024-01-15T13:02:46;7.18;;;1.77;;
55067;SDS011;40965;52.368;9.712;2024-01-15T13:05:14;4.93;;;1.40;;
55067;SDS011;40965;52.368;9.712;2024-01-15T13:07:42;4.47;;;1.13;;
55067;SDS011;40965;52.368;9.712;2024-01-15T13:10:09;5.97;;;1.83;;
55067;SDS011;40965;52.368;9.712;2024-01-15T13:12:36;5.43;;;1.60;;
55067;SDS011;40965;52.368;9.712;2024-01-15T13:15:03;7.70;;;2.58;;
55067;SDS011;40965;52.368;9.712;2024-01-15T13:17:30;7.88;;;1.48;;
55067;SDS011;40965;52.368;9.712;2024-01-15T13:19:57;8.45;;;3.63;;
55067;SDS011;40965;52.368;9.712;2024-01-15T13:22:27;7.20;;;2.20;;
55067;SDS011;40965;52.368;9.712;2024-01-15T13:24:56;10.48;;;2.47;;
55067;SDS011;40965;52.368;9.712;2024-01-15T13:27:23;8.07;;;2.35;;
55067;SDS011;40965;52.368;9.712;2024-01-15T13:29:50;4.60;;;1.25;;
55067;SDS011;40965;52.368;9.712;2024-01-15T13:32:17;4.47;;;0.93;;
55067;SDS011;40965;52.368;9.712;2024-01-15T13:34:55;4.88;;;1.08;;
55067;SDS011;40965;52.368;9.712;2024-01-15T13:37:23;3.40;;;1.33;;
55067;SDS011;40965;52.368;9.712;2024-01-15T13:39:50;2.58;;;1.50;;
55067;SDS011;40965;52.368;9.712;2024-01-15T13:42:20;2.17;;;1.60;;
55067;SDS011;40965;52.368;9.712;2024-01-15T13:44:48;5.82;;;1.88;;
55067;SDS011;40965;52.368;9.712;2024-01-15T13:47:14;6.43;;;1.33;;
55067;SDS011;40965;52.368;9.712;2024-01-15T13:49:41;6.65;;;1.58;;
55067;SDS011;40965;52.368;9.712;2024-01-15T13:52:08;9.52;;;2.00;;
55067;SDS011;40965;52.368;9.712;2024-01-15T13:54:34;3.75;;;1.33;;
55067;SDS011;40965;52.368;9.712;2024-01-15T13:57:00;5.22;;;2.75;;
55067;SDS011;40965;52.368;9.712;2024-01-15T13:59:27;4.65;;;1.30;;
55067;SDS011;40965;52.368;9.712;2024-01-15T14:01:54;2.90;;;1.45;;
55067;SDS011;40965;52.368;9.712;2024-01-15T14:04:24;3.30;;;1.08;;
55067;SDS011;40965;52.368;9.712;2024-01-15T14:06:53;5.13;;;1.35;;
55067;SDS011;40965;52.368;9.712;2024-01-15T14:09:24;6.20;;;1.92;;
55067;SDS011;40965;52.368;9.712;2024-01-15T14:11:51;6.25;;;1.90;;
55067;SDS011;40965;52.368;9.712;2024-01-15T14:14:19;5.95;;;1.35;;
55067;SDS011;40965;52.368;9.712;2024-01-15T14:16:45;6.65;;;1.45;;
55067;SDS011;40965;52.368;9.712;2024-01-15T14:19:12;10.77;;;1.50;;
55067;SDS011;40965;52.368;9.712;2024-01-15T14:21:40;6.55;;;1.85;;
55067;SDS011;40965;52.368;9.712;2024-01-15T14:24:09;4.78;;;1.10;;
55067;SDS011;40965;52.368;9.712;2024-01-15T14:26:36;3.38;;;1.23;;
55067;SDS011;40965;52.368;9.712;2024-01-15T14:29:03;5.60;;;2.38;;
55067;SDS011;40965;52.368;9.712;2024-01-15T14:31:30;7.45;;;2.20;;
55067;SDS011;40965;52.368;9.712;2024-01-15T14:33:58;4.63;;;1.52;;
55067;SDS011;40965;52.368;9.712;2024-01-15T14:36:25;5.68;;;1.77;;
55067;SDS011;40965;52.368;9.712;2024-01-15T14:41:47;4.10;;;1.50;;
55067;SDS011;40965;52.368;9.712;2024-01-15T14:44:14;2.53;;;1.45;;
55067;SDS011;40965;52.368;9.712;2024-01-15T14:46:41;5.72;;;2.45;;
55067;SDS011;40965;52.368;9.712;2024-01-15T14:49:07;3.75;;;1.50;;
55067;SDS011;40965;52.368;9.712;2024-01-15T14:51:34;3.60;;;1.63;;
55067;SDS011;40965;52.368;9.712;2024-01-15T14:54:01;1.63;;;1.40;;
55067;SDS011;40965;52.368;9.712;2024-01-15T14:56:28;5.05;;;1.80;;
55067;SDS011;40965;52.368;9.712;2024-01-15T14:58:59;4.97;;;2.95;;
55067;SDS011;40965;52.368;9.712;2024-01-15T15:01:26;3.83;;;2.35;;